Station: EBLB - 21/07/2018 07:55Z (il y a 9 minutes)
EBLB 210755Z AUTO 01003KT 9999 NCD 21/10 Q1013 BLU
Vent du 010º - 3 kt
Visibilité > 10 km
Pas de nuages détectés
Température: +21ºC - Point de rosée: +10ºC - QNH: 1013 hPa
Code couleur militaire: BLU (conditions VMC)